sensor_id;sensor_type;location;lat;lon;timestamp;pressure;altitude;pressure_sealevel;temperature;humidity
4167;BME280;2097;51.104;7.150;2023-01-16T00:01:18;96823.72;;;2.77;100.00
4167;BME280;2097;51.104;7.150;2023-01-16T00:03:45;96483.31;;;0.82;100.00
4167;BME280;2097;51.104;7.150;2023-01-16T00:06:12;97064.75;;;4.30;100.00
4167;BME280;2097;51.104;7.150;2023-01-16T00:08:40;97060.53;;;4.29;100.00
4167;BME280;2097;51.104;7.150;2023-01-16T00:11:07;97066.47;;;4.30;100.00
4167;BME280;2097;51.104;7.150;2023-01-16T00:13:34;97048.88;;;4.24;100.00
4167;BME280;2097;51.104;7.150;2023-01-16T00:16:01;96011.41;;;-2.66;100.00
4167;BME280;2097;51.104;7.150;2023-01-16T00:18:28;97034.31;;;4.10;100.00
4167;BME280;2097;51.104;7.150;2023-01-16T00:20:55;97031.56;;;4.13;100.00
4167;BME280;2097;51.104;7.150;2023-01-16T00:23:22;96354.44;;;-0.43;100.00
4167;BME280;2097;51.104;7.150;2023-01-16T00:25:50;96654.34;;;1.85;100.00
4167;BME280;2097;51.104;7.150;2023-01-16T00:28:17;97023.66;;;4.16;100.00
4167;BME280;2097;51.104;7.150;2023-01-16T00:30:44;96848.16;;;2.96;100.00
4167;BME280;2097;51.104;7.150;2023-01-16T00:33:11;97020.19;;;4.17;100.00
4167;BME280;2097;51.104;7.150;2023-01-16T00:35:38;97017.63;;;4.17;100.00
4167;BME280;2097;51.104;7.150;2023-01-16T00:38:05;96903.28;;;3.45;100.00
4167;BME280;2097;51.104;7.150;2023-01-16T00:40:32;97075.91;;;4.15;100.00
4167;BME280;2097;51.104;7.150;2023-01-16T00:43:00;97013.59;;;4.13;100.00
4167;BME280;2097;51.104;7.150;2023-01-16T00:45:27;97006.00;;;4.12;100.00
4167;BME280;2097;51.104;7.150;2023-01-16T00:47:54;97013.78;;;4.10;100.00
4167;BME280;2097;51.104;7.150;2023-01-16T00:50:21;97006.25;;;4.07;100.00
4167;BME280;2097;51.104;7.150;2023-01-16T00:52:47;97015.28;;;4.00;100.00
4167;BME280;2097;51.104;7.150;2023-01-16T00:55:14;97006.53;;;3.89;100.00
4167;BME280;2097;51.104;7.150;2023-01-16T00:57:41;96772.09;;;2.41;100.00
4167;BME280;2097;51.104;7.150;2023-01-16T01:00:10;97004.19;;;3.72;100.00
4167;BME280;2097;51.104;7.150;2023-01-16T01:02:37;96999.47;;;3.64;100.00
4167;BME280;2097;51.104;7.150;2023-01-16T01:05:05;96989.50;;;3.60;100.00
4167;BME280;2097;51.104;7.150;2023-01-16T01:07:32;96817.25;;;2.56;100.00
4167;BME280;2097;51.104;7.150;2023-01-16T01:09:59;96981.91;;;3.58;100.00
4167;BME280;2097;51.104;7.150;2023-01-16T01:12:26;96985.94;;;3.62;100.00
4167;BME280;2097;51.104;7.150;2023-01-16T01:14:52;96979.69;;;3.66;100.00
4167;BME280;2097;51.104;7.150;2023-01-16T01:17:21;96969.09;;;3.72;100.00
4167;BME280;2097;51.104;7.150;2023-01-16T01:19:47;96968.91;;;3.75;100.00
4167;BME280;2097;51.104;7.150;2023-01-16T01:22:15;96970.47;;;3.78;100.00
4167;BME280;2097;51.104;7.150;2023-01-16T01:24:42;96967.63;;;3.82;100.00
4167;BME280;2097;51.104;7.150;2023-01-16T01:27:09;96963.22;;;3.84;100.00
4167;BME280;2097;51.104;7.150;2023-01-16T01:29:36;96957.25;;;3.84;100.00
4167;BME280;2097;51.104;7.150;2023-01-16T01:32:03;96954.06;;;3.80;100.00
4167;BME280;2097;51.104;7.150;2023-01-16T01:34:32;96943.25;;;3.75;100.00
4167;BME280;2097;51.104;7.150;2023-01-16T01:36:59;96937.41;;;3.73;100.00
4167;BME280;2097;51.104;7.150;2023-01-16T01:39:26;96928.88;;;3.73;100.00
4167;BME280;2097;51.104;7.150;2023-01-16T01:41:53;96920.28;;;3.74;100.00
4167;BME280;2097;51.104;7.150;2023-01-16T01:45:00;96912.59;;;3.74;100.00
4167;BME280;2097;51.104;7.150;2023-01-16T01:47:30;96914.31;;;3.73;100.00
4167;BME280;2097;51.104;7.150;2023-01-16T01:50:04;96910.81;;;3.74;100.00
4167;BME280;2097;51.104;7.150;2023-01-16T01:52:31;96897.09;;;3.75;100.00
4167;BME280;2097;51.104;7.150;2023-01-16T01:55:02;96899.59;;;3.77;100.00
4167;BME280;2097;51.104;7.150;2023-01-16T01:57:33;96891.03;;;3.76;100.00
4167;BME280;2097;51.104;7.150;2023-01-16T02:00:04;96885.91;;;3.76;100.00
4167;BME280;2097;51.104;7.150;2023-01-16T02:02:35;96887.56;;;3.77;100.00
4167;BME280;2097;51.104;7.150;2023-01-16T02:05:06;96875.22;;;3.70;100.00
4167;BME280;2097;51.104;7.150;2023-01-16T02:07:35;96873.75;;;3.80;100.00
4167;BME280;2097;51.104;7.150;2023-01-16T02:10:08;96871.81;;;3.83;100.00
4167;BME280;2097;51.104;7.150;2023-01-16T02:12:36;96868.31;;;3.84;100.00
4167;BME280;2097;51.104;7.150;2023-01-16T02:15:04;96859.72;;;3.85;100.00
4167;BME280;2097;51.104;7.150;2023-01-16T02:17:31;96850.19;;;3.87;100.00
4167;BME280;2097;51.104;7.150;2023-01-16T02:20:19;96839.00;;;3.88;100.00
4167;BME280;2097;51.104;7.150;2023-01-16T02:23:21;96834.78;;;3.87;100.00
4167;BME280;2097;51.104;7.150;2023-01-16T02:26:12;96824.53;;;3.87;100.00
4167;BME280;2097;51.104;7.150;2023-01-16T02:29:08;96826.38;;;3.85;100.00
4167;BME280;2097;51.104;7.150;2023-01-16T02:31:47;96811.06;;;3.84;100.00
4167;BME280;2097;51.104;7.150;2023-01-16T02:34:31;96804.38;;;3.81;100.00
4167;BME280;2097;51.104;7.150;2023-01-16T02:37:13;96801.22;;;3.78;100.00
4167;BME280;2097;51.104;7.150;2023-01-16T02:39:50;96793.59;;;3.76;100.00
4167;BME280;2097;51.104;7.150;2023-01-16T02:42:24;96793.59;;;3.76;100.00
4167;BME280;2097;51.104;7.150;2023-01-16T02:45:01;96782.91;;;3.70;100.00
4167;BME280;2097;51.104;7.150;2023-01-16T02:47:35;96782.97;;;3.68;100.00
4167;BME280;2097;51.104;7.150;2023-01-16T02:50:13;96772.50;;;3.59;100.00
4167;BME280;2097;51.104;7.150;2023-01-16T02:52:46;96781.16;;;3.44;100.00
4167;BME280;2097;51.104;7.150;2023-01-16T02:55:20;96766.41;;;3.33;100.00
4167;BME280;2097;51.104;7.150;2023-01-16T02:57:54;96759.31;;;3.25;100.00
4167;BME280;2097;51.104;7.150;2023-01-16T03:00:22;96760.22;;;3.24;100.00
4167;BME280;2097;51.104;7.150;2023-01-16T03:02:51;96755.91;;;3.24;100.00
4167;BME280;2097;51.104;7.150;2023-01-16T03:05:18;96750.50;;;3.29;100.00
4167;BME280;2097;51.104;7.150;2023-01-16T03:08:08;96738.94;;;3.35;100.00
4167;BME280;2097;51.104;7.150;2023-01-16T03:10:58;96652.84;;;2.93;100.00
4167;BME280;2097;51.104;7.150;2023-01-16T03:13:46;96727.31;;;3.44;100.00
4167;BME280;2097;51.104;7.150;2023-01-16T03:16:26;96712.75;;;3.44;100.00
4167;BME280;2097;51.104;7.150;2023-01-16T03:19:10;96712.75;;;3.44;100.00
4167;BME280;2097;51.104;7.150;2023-01-16T03:21:41;96685.84;;;3.37;100.00
4167;BME280;2097;51.104;7.150;2023-01-16T03:24:26;96692.88;;;3.48;100.00
4167;BME280;2097;51.104;7.150;2023-01-16T03:26:57;96679.06;;;3.50;100.00
4167;BME280;2097;51.104;7.150;2023-01-16T03:29:30;96545.94;;;2.70;100.00
4167;BME280;2097;51.104;7.150;2023-01-16T03:32:02;96663.56;;;3.52;100.00
4167;BME280;2097;51.104;7.150;2023-01-16T03:34:38;96660.19;;;3.51;100.00
4167;BME280;2097;51.104;7.150;2023-01-16T03:37:09;96653.94;;;3.55;100.00
4167;BME280;2097;51.104;7.150;2023-01-16T03:39:41;96646.97;;;3.57;100.00
4167;BME280;2097;51.104;7.150;2023-01-16T03:42:12;96643.31;;;3.61;100.00
4167;BME280;2097;51.104;7.150;2023-01-16T03:44:42;96631.09;;;3.65;100.00
4167;BME280;2097;51.104;7.150;2023-01-16T03:47:14;96636.03;;;3.68;100.00
4167;BME280;2097;51.104;7.150;2023-01-16T03:49:50;96627.28;;;3.70;100.00
4167;BME280;2097;51.104;7.150;2023-01-16T03:52:21;96625.66;;;3.69;100.00
4167;BME280;2097;51.104;7.150;2023-01-16T03:54:52;96620.00;;;3.64;100.00
4167;BME280;2097;51.104;7.150;2023-01-16T03:57:26;96623.00;;;3.58;100.00
4167;BME280;2097;51.104;7.150;2023-01-16T03:59:54;96612.59;;;3.47;100.00
4167;BME280;2097;51.104;7.150;2023-01-16T04:02:25;96613.09;;;3.40;100.00
4167;BME280;2097;51.104;7.150;2023-01-16T04:05:00;96604.03;;;3.34;100.00
4167;BME280;2097;51.104;7.150;2023-01-16T04:07:31;96604.16;;;3.33;100.00
4167;BME280;2097;51.104;7.150;2023-01-16T04:10:03;96597.38;;;3.32;100.00
4167;BME280;2097;51.104;7.150;2023-01-16T04:12:33;96549.25;;;3.11;100.00
4167;BME280;2097;51.104;7.150;2023-01-16T04:15:05;96569.09;;;3.33;100.00
4167;BME280;2097;51.104;7.150;2023-01-16T04:17:33;96585.84;;;3.51;100.00
4167;BME280;2097;51.104;7.150;2023-01-16T04:20:02;96460.78;;;2.93;100.00
4167;BME280;2097;51.104;7.150;2023-01-16T04:22:29;96561.16;;;3.63;100.00
4167;BME280;2097;51.104;7.150;2023-01-16T04:24:58;96498.78;;;3.37;100.00
4167;BME280;2097;51.104;7.150;2023-01-16T04:27:25;96521.75;;;3.64;100.00
4167;BME280;2097;51.104;7.150;2023-01-16T04:29:52;96517.16;;;3.56;100.00
4167;BME280;2097;51.104;7.150;2023-01-16T04:32:21;96514.47;;;3.45;100.00
4167;BME280;2097;51.104;7.150;2023-01-16T04:34:48;96505.34;;;3.41;100.00
4167;BME280;2097;51.104;7.150;2023-01-16T04:37:17;96499.81;;;3.47;100.00
4167;BME280;2097;51.104;7.150;2023-01-16T04:39:44;96491.72;;;3.53;100.00
4167;BME280;2097;51.104;7.150;2023-01-16T04:42:12;96482.19;;;3.55;100.00
4167;BME280;2097;51.104;7.150;2023-01-16T04:44:40;96472.66;;;3.57;100.00
4167;BME280;2097;51.104;7.150;2023-01-16T04:47:06;96455.63;;;3.56;100.00
4167;BME280;2097;51.104;7.150;2023-01-16T04:49:33;96452.34;;;3.54;100.00
4167;BME280;2097;51.104;7.150;2023-01-16T04:52:00;96442.38;;;3.50;100.00
4167;BME280;2097;51.104;7.150;2023-01-16T04:54:28;96435.63;;;3.49;100.00
4167;BME280;2097;51.104;7.150;2023-01-16T04:56:55;96436.13;;;3.54;100.00
4167;BME280;2097;51.104;7.150;2023-01-16T04:59:22;96417.91;;;3.58;100.00
4167;BME280;2097;51.104;7.150;2023-01-16T05:01:49;96413.38;;;3.62;100.00
4167;BME280;2097;51.104;7.150;2023-01-16T05:04:16;96402.31;;;3.61;100.00
4167;BME280;2097;51.104;7.150;2023-01-16T05:06:43;96395.53;;;3.60;100.00
4167;BME280;2097;51.104;7.150;2023-01-16T05:09:10;96384.78;;;3.55;100.00
4167;BME280;2097;51.104;7.150;2023-01-16T05:11:38;96373.19;;;3.50;100.00
4167;BME280;2097;51.104;7.150;2023-01-16T05:14:05;96378.44;;;3.48;100.00
4167;BME280;2097;51.104;7.150;2023-01-16T05:16:33;96371.34;;;3.52;100.00
4167;BME280;2097;51.104;7.150;2023-01-16T05:19:00;96366.72;;;3.57;100.00
4167;BME280;2097;51.104;7.150;2023-01-16T05:21:27;96350.13;;;3.62;100.00
4167;BME280;2097;51.104;7.150;2023-01-16T05:23:54;96343.03;;;3.66;100.00
4167;BME280;2097;51.104;7.150;2023-01-16T05:26:21;96346.38;;;3.66;100.00
4167;BME280;2097;51.104;7.150;2023-01-16T05:28:50;96336.03;;;3.68;100.00
4167;BME280;2097;51.104;7.150;2023-01-16T05:31:18;96327.22;;;3.72;100.00
4167;BME280;2097;51.104;7.150;2023-01-16T05:33:48;96326.28;;;3.73;100.00
4167;BME280;2097;51.104;7.150;2023-01-16T05:36:14;96315.81;;;3.76;100.00
4167;BME280;2097;51.104;7.150;2023-01-16T05:38:41;96325.94;;;3.77;100.00
4167;BME280;2097;51.104;7.150;2023-01-16T05:41:08;96303.59;;;3.79;100.00
4167;BME280;2097;51.104;7.150;2023-01-16T05:43:35;96298.25;;;3.82;100.00
4167;BME280;2097;51.104;7.150;2023-01-16T05:46:04;96046.94;;;2.32;100.00
4167;BME280;2097;51.104;7.150;2023-01-16T05:48:31;96267.41;;;3.71;100.00
4167;BME280;2097;51.104;7.150;2023-01-16T05:50:59;96272.00;;;3.79;100.00
4167;BME280;2097;51.104;7.150;2023-01-16T05:53:26;96261.84;;;3.77;100.00
4167;BME280;2097;51.104;7.150;2023-01-16T05:55:56;96255.78;;;3.78;100.00
4167;BME280;2097;51.104;7.150;2023-01-16T05:58:23;96257.66;;;3.76;100.00
4167;BME280;2097;51.104;7.150;2023-01-16T06:00:50;96247.28;;;3.78;100.00
4167;BME280;2097;51.104;7.150;2023-01-16T06:03:18;96255.69;;;3.80;100.00
4167;BME280;2097;51.104;7.150;2023-01-16T06:05:46;96247.88;;;3.81;100.00
4167;BME280;2097;51.104;7.150;2023-01-16T06:08:13;96246.03;;;3.83;100.00
4167;BME280;2097;51.104;7.150;2023-01-16T06:10:39;96249.31;;;3.85;100.00
4167;BME280;2097;51.104;7.150;2023-01-16T06:13:06;96239.63;;;3.89;100.00
4167;BME280;2097;51.104;7.150;2023-01-16T06:15:33;96241.16;;;3.91;100.00
4167;BME280;2097;51.104;7.150;2023-01-16T06:18:00;96227.19;;;3.95;100.00
4167;BME280;2097;51.104;7.150;2023-01-16T06:20:28;96232.91;;;3.99;100.00
4167;BME280;2097;51.104;7.150;2023-01-16T06:22:55;96219.03;;;4.01;100.00
4167;BME280;2097;51.104;7.150;2023-01-16T06:25:22;96215.53;;;4.02;100.00
4167;BME280;2097;51.104;7.150;2023-01-16T06:27:49;96210.31;;;4.04;100.00
4167;BME280;2097;51.104;7.150;2023-01-16T06:30:16;96199.00;;;4.06;100.00
4167;BME280;2097;51.104;7.150;2023-01-16T06:32:43;96190.38;;;4.07;100.00
4167;BME280;2097;51.104;7.150;2023-01-16T06:35:10;96179.09;;;4.10;100.00
4167;BME280;2097;51.104;7.150;2023-01-16T06:37:38;96176.38;;;4.11;100.00
4167;BME280;2097;51.104;7.150;2023-01-16T06:40:06;96169.63;;;4.10;100.00
4167;BME280;2097;51.104;7.150;2023-01-16T06:42:33;96159.34;;;4.10;100.00
4167;BME280;2097;51.104;7.150;2023-01-16T06:45:00;96149.81;;;4.12;100.00
4167;BME280;2097;51.104;7.150;2023-01-16T06:47:27;96143.97;;;4.10;100.00
4167;BME280;2097;51.104;7.150;2023-01-16T06:49:54;96136.16;;;4.12;100.00
4167;BME280;2097;51.104;7.150;2023-01-16T06:52:21;96126.00;;;4.10;100.00
4167;BME280;2097;51.104;7.150;2023-01-16T06:54:49;96118.31;;;4.10;100.00
4167;BME280;2097;51.104;7.150;2023-01-16T06:57:16;96120.06;;;4.10;100.00
4167;BME280;2097;51.104;7.150;2023-01-16T06:59:43;96096.16;;;4.09;100.00
4167;BME280;2097;51.104;7.150;2023-01-16T07:02:09;96093.59;;;4.09;100.00
4167;BME280;2097;51.104;7.150;2023-01-16T07:04:36;96075.63;;;4.09;100.00
4167;BME280;2097;51.104;7.150;2023-01-16T07:07:03;96074.81;;;4.09;100.00
4167;BME280;2097;51.104;7.150;2023-01-16T07:09:30;96080.06;;;4.07;100.00
4167;BME280;2097;51.104;7.150;2023-01-16T07:11:59;96032.72;;;3.89;100.00
4167;BME280;2097;51.104;7.150;2023-01-16T07:14:25;96056.16;;;4.07;100.00
4167;BME280;2097;51.104;7.150;2023-01-16T07:17:11;96057.91;;;4.06;100.00
4167;BME280;2097;51.104;7.150;2023-01-16T07:19:55;96053.47;;;4.08;100.00
4167;BME280;2097;51.104;7.150;2023-01-16T07:22:40;96037.03;;;4.11;100.00
4167;BME280;2097;51.104;7.150;2023-01-16T07:25:11;96031.78;;;4.12;100.00
4167;BME280;2097;51.104;7.150;2023-01-16T07:27:42;96021.28;;;4.15;100.00
4167;BME280;2097;51.104;7.150;2023-01-16T07:30:10;96006.59;;;4.17;100.00
4167;BME280;2097;51.104;7.150;2023-01-16T07:32:38;95995.41;;;4.18;100.00
4167;BME280;2097;51.104;7.150;2023-01-16T07:35:06;95987.13;;;4.15;100.00
4167;BME280;2097;51.104;7.150;2023-01-16T07:37:33;95739.81;;;2.68;100.00
4167;BME280;2097;51.104;7.150;2023-01-16T07:40:00;95971.16;;;4.11;100.00
4167;BME280;2097;51.104;7.150;2023-01-16T07:42:27;95962.75;;;4.09;100.00
4167;BME280;2097;51.104;7.150;2023-01-16T07:44:55;95947.97;;;4.02;100.00
4167;BME280;2097;51.104;7.150;2023-01-16T07:47:22;95946.44;;;4.10;100.00
4167;BME280;2097;51.104;7.150;2023-01-16T07:49:49;95950.75;;;4.10;100.00
4167;BME280;2097;51.104;7.150;2023-01-16T07:52:16;95940.38;;;4.11;100.00
4167;BME280;2097;51.104;7.150;2023-01-16T07:54:43;95936.88;;;4.12;100.00
4167;BME280;2097;51.104;7.150;2023-01-16T07:57:10;95912.84;;;4.13;100.00
4167;BME280;2097;51.104;7.150;2023-01-16T07:59:37;95924.72;;;4.14;100.00
4167;BME280;2097;51.104;7.150;2023-01-16T08:02:05;95919.38;;;4.17;100.00
4167;BME280;2097;51.104;7.150;2023-01-16T08:04:32;95910.50;;;4.21;100.00
4167;BME280;2097;51.104;7.150;2023-01-16T08:06:59;95909.41;;;4.24;100.00
4167;BME280;2097;51.104;7.150;2023-01-16T08:09:25;95897.88;;;4.29;100.00
4167;BME280;2097;51.104;7.150;2023-01-16T08:11:52;95896.25;;;4.28;100.00
4167;BME280;2097;51.104;7.150;2023-01-16T08:14:19;95555.50;;;2.26;100.00
4167;BME280;2097;51.104;7.150;2023-01-16T08:16:46;95875.97;;;4.25;100.00
4167;BME280;2097;51.104;7.150;2023-01-16T08:19:14;95870.94;;;4.24;100.00
4167;BME280;2097;51.104;7.150;2023-01-16T08:21:41;95884.59;;;4.24;100.00
4167;BME280;2097;51.104;7.150;2023-01-16T08:24:08;95860.81;;;4.22;100.00
4167;BME280;2097;51.104;7.150;2023-01-16T08:26:39;95855.13;;;4.19;100.00
4167;BME280;2097;51.104;7.150;2023-01-16T08:29:06;95844.16;;;4.17;100.00
4167;BME280;2097;51.104;7.150;2023-01-16T08:31:33;95842.63;;;4.14;100.00
4167;BME280;2097;51.104;7.150;2023-01-16T08:34:00;95830.50;;;4.16;100.00
4167;BME280;2097;51.104;7.150;2023-01-16T08:36:28;95832.97;;;4.18;100.00
4167;BME280;2097;51.104;7.150;2023-01-16T08:38:55;95824.34;;;4.19;100.00
4167;BME280;2097;51.104;7.150;2023-01-16T08:41:22;95818.13;;;4.21;100.00
4167;BME280;2097;51.104;7.150;2023-01-16T08:44:07;95824.06;;;4.22;100.00
4167;BME280;2097;51.104;7.150;2023-01-16T08:46:54;95792.47;;;4.21;100.00
4167;BME280;2097;51.104;7.150;2023-01-16T08:49:40;95792.34;;;4.23;100.00
4167;BME280;2097;51.104;7.150;2023-01-16T08:52:25;95665.16;;;3.48;100.00
4167;BME280;2097;51.104;7.150;2023-01-16T08:54:55;95774.28;;;4.24;100.00
4167;BME280;2097;51.104;7.150;2023-01-16T08:57:22;95772.41;;;4.26;100.00
4167;BME280;2097;51.104;7.150;2023-01-16T08:59:49;95774.72;;;4.29;100.00
4167;BME280;2097;51.104;7.150;2023-01-16T09:02:16;95772.00;;;4.31;100.00
4167;BME280;2097;51.104;7.150;2023-01-16T09:04:44;95763.13;;;4.35;100.00
4167;BME280;2097;51.104;7.150;2023-01-16T09:07:11;95810.00;;;4.37;100.00
4167;BME280;2097;51.104;7.150;2023-01-16T09:09:39;95780.00;;;4.37;100.00
4167;BME280;2097;51.104;7.150;2023-01-16T09:12:10;95761.25;;;4.37;100.00
4167;BME280;2097;51.104;7.150;2023-01-16T09:14:54;95757.06;;;4.36;100.00
4167;BME280;2097;51.104;7.150;2023-01-16T09:17:22;95761.50;;;4.34;100.00
4167;BME280;2097;51.104;7.150;2023-01-16T09:19:49;95759.06;;;4.32;100.00
4167;BME280;2097;51.104;7.150;2023-01-16T09:22:16;95740.28;;;4.32;100.00
4167;BME280;2097;51.104;7.150;2023-01-16T09:24:45;95737.66;;;4.22;100.00
4167;BME280;2097;51.104;7.150;2023-01-16T09:27:12;95751.72;;;4.28;100.00
4167;BME280;2097;51.104;7.150;2023-01-16T09:29:39;95717.00;;;4.24;100.00
4167;BME280;2097;51.104;7.150;2023-01-16T09:32:07;95732.78;;;4.19;100.00
4167;BME280;2097;51.104;7.150;2023-01-16T09:34:35;95726.25;;;4.15;100.00
4167;BME280;2097;51.104;7.150;2023-01-16T09:37:02;95730.00;;;4.11;100.00
4167;BME280;2097;51.104;7.150;2023-01-16T09:39:29;95729.31;;;4.09;100.00
4167;BME280;2097;51.104;7.150;2023-01-16T09:45:13;95715.56;;;4.10;100.00
4167;BME280;2097;51.104;7.150;2023-01-16T09:47:44;95718.63;;;4.04;100.00
4167;BME280;2097;51.104;7.150;2023-01-16T09:50:30;95706.63;;;4.05;100.00
4167;BME280;2097;51.104;7.150;2023-01-16T09:52:59;95708.09;;;4.07;100.00
4167;BME280;2097;51.104;7.150;2023-01-16T09:58:16;95582.72;;;3.43;100.00
4167;BME280;2097;51.104;7.150;2023-01-16T10:01:06;95697.59;;;4.10;100.00
4167;BME280;2097;51.104;7.150;2023-01-16T10:03:34;95699.72;;;4.05;100.00
4167;BME280;2097;51.104;7.150;2023-01-16T10:06:13;95698.91;;;4.05;100.00
4167;BME280;2097;51.104;7.150;2023-01-16T10:08:54;95687.28;;;4.01;100.00
4167;BME280;2097;51.104;7.150;2023-01-16T10:11:30;95692.16;;;4.04;100.00
4167;BME280;2097;51.104;7.150;2023-01-16T10:14:13;95684.09;;;4.08;100.00
4167;BME280;2097;51.104;7.150;2023-01-16T10:16:54;95676.13;;;4.11;100.00
4167;BME280;2097;51.104;7.150;2023-01-16T10:19:38;95663.50;;;4.19;100.00
4167;BME280;2097;51.104;7.150;2023-01-16T10:22:16;95670.25;;;4.20;100.00
4167;BME280;2097;51.104;7.150;2023-01-16T10:24:59;95664.19;;;4.21;100.00
4167;BME280;2097;51.104;7.150;2023-01-16T10:27:36;95658.81;;;4.24;100.00
4167;BME280;2097;51.104;7.150;2023-01-16T10:30:13;95649.78;;;4.30;100.00
4167;BME280;2097;51.104;7.150;2023-01-16T10:32:45;95649.78;;;4.30;100.00
4167;BME280;2097;51.104;7.150;2023-01-16T10:35:17;95541.72;;;3.63;100.00
4167;BME280;2097;51.104;7.150;2023-01-16T10:37:47;95641.97;;;4.31;100.00
4167;BME280;2097;51.104;7.150;2023-01-16T10:40:17;95644.28;;;4.34;100.00
4167;BME280;2097;51.104;7.150;2023-01-16T10:42:47;95636.97;;;4.39;100.00
4167;BME280;2097;51.104;7.150;2023-01-16T10:45:35;95634.31;;;4.41;100.00
4167;BME280;2097;51.104;7.150;2023-01-16T10:48:20;95630.53;;;4.45;100.00
4167;BME280;2097;51.104;7.150;2023-01-16T10:51:06;95631.09;;;4.48;100.00
4167;BME280;2097;51.104;7.150;2023-01-16T10:53:34;95619.19;;;4.47;100.00
4167;BME280;2097;51.104;7.150;2023-01-16T10:56:03;95620.56;;;4.51;100.00
4167;BME280;2097;51.104;7.150;2023-01-16T10:58:31;95607.88;;;4.49;100.00
4167;BME280;2097;51.104;7.150;2023-01-16T11:01:03;95606.25;;;4.48;100.00
4167;BME280;2097;51.104;7.150;2023-01-16T11:03:35;95583.25;;;4.47;100.00
4167;BME280;2097;51.104;7.150;2023-01-16T11:06:10;95565.13;;;4.39;100.00
4167;BME280;2097;51.104;7.150;2023-01-16T11:08:37;95575.72;;;4.55;100.00
4167;BME280;2097;51.104;7.150;2023-01-16T11:11:04;95577.09;;;4.59;100.00
4167;BME280;2097;51.104;7.150;2023-01-16T11:13:52;95571.69;;;4.62;100.00
4167;BME280;2097;51.104;7.150;2023-01-16T11:16:38;95561.69;;;4.68;100.00
4167;BME280;2097;51.104;7.150;2023-01-16T11:19:24;95547.94;;;4.79;100.00
4167;BME280;2097;51.104;7.150;2023-01-16T11:21:54;95547.94;;;4.79;100.00
4167;BME280;2097;51.104;7.150;2023-01-16T11:24:23;95541.03;;;4.70;100.00
4167;BME280;2097;51.104;7.150;2023-01-16T11:26:52;95550.38;;;4.71;100.00
4167;BME280;2097;51.104;7.150;2023-01-16T11:29:21;95524.41;;;4.64;100.00
4167;BME280;2097;51.104;7.150;2023-01-16T11:31:53;95523.28;;;4.57;100.00
4167;BME280;2097;51.104;7.150;2023-01-16T11:34:22;95533.03;;;4.54;100.00
4167;BME280;2097;51.104;7.150;2023-01-16T11:36:52;95527.91;;;4.54;100.00
4167;BME280;2097;51.104;7.150;2023-01-16T11:39:23;95523.84;;;4.51;100.00
4167;BME280;2097;51.104;7.150;2023-01-16T11:41:52;95511.13;;;4.50;100.00
4167;BME280;2097;51.104;7.150;2023-01-16T11:44:21;95503.31;;;4.51;100.00
4167;BME280;2097;51.104;7.150;2023-01-16T11:47:11;95490.06;;;4.56;100.00
4167;BME280;2097;51.104;7.150;2023-01-16T11:49:40;95494.94;;;4.59;100.00
4167;BME280;2097;51.104;7.150;2023-01-16T11:52:13;95494.69;;;4.62;100.00
4167;BME280;2097;51.104;7.150;2023-01-16T11:57:30;95482.78;;;4.80;100.00
4167;BME280;2097;51.104;7.150;2023-01-16T12:00:23;95469.81;;;4.91;100.00
4167;BME280;2097;51.104;7.150;2023-01-16T12:05:59;95464.53;;;4.92;100.00
4167;BME280;2097;51.104;7.150;2023-01-16T12:08:39;95458.75;;;4.90;100.00
4167;BME280;2097;51.104;7.150;2023-01-16T12:11:14;95450.75;;;4.93;100.00
4167;BME280;2097;51.104;7.150;2023-01-16T12:13:46;95449.78;;;4.94;100.00
4167;BME280;2097;51.104;7.150;2023-01-16T12:16:41;95436.69;;;4.88;100.00
4167;BME280;2097;51.104;7.150;2023-01-16T12:22:16;95423.59;;;4.81;100.00
4167;BME280;2097;51.104;7.150;2023-01-16T12:24:51;95440.06;;;4.79;100.00
4167;BME280;2097;51.104;7.150;2023-01-16T12:27:33;95415.25;;;4.70;100.00
4167;BME280;2097;51.104;7.150;2023-01-16T12:30:06;95396.31;;;4.61;100.00
4167;BME280;2097;51.104;7.150;2023-01-16T12:32:48;95384.97;;;4.54;100.00
4167;BME280;2097;51.104;7.150;2023-01-16T12:35:33;95382.13;;;4.48;100.00
4167;BME280;2097;51.104;7.150;2023-01-16T12:38:13;95370.78;;;4.41;100.00
4167;BME280;2097;51.104;7.150;2023-01-16T12:41:15;95358.50;;;4.35;100.00
4167;BME280;2097;51.104;7.150;2023-01-16T12:44:17;95364.59;;;4.34;100.00
4167;BME280;2097;51.104;7.150;2023-01-16T12:46:55;95357.41;;;4.28;100.00
4167;BME280;2097;51.104;7.150;2023-01-16T12:49:38;95345.91;;;4.23;100.00
4167;BME280;2097;51.104;7.150;2023-01-16T12:52:26;95340.41;;;4.18;100.00
4167;BME280;2097;51.104;7.150;2023-01-16T12:55:10;95329.31;;;4.17;100.00
4167;BME280;2097;51.104;7.150;2023-01-16T12:57:54;95322.16;;;4.21;100.00
4167;BME280;2097;51.104;7.150;2023-01-16T13:00:27;95321.50;;;4.19;100.00
4167;BME280;2097;51.104;7.150;2023-01-16T13:03:00;95313.94;;;4.17;100.00
4167;BME280;2097;51.104;7.150;2023-01-16T13:05:33;95298.28;;;4.11;100.00
4167;BME280;2097;51.104;7.150;2023-01-16T13:08:07;95297.59;;;4.18;100.00
4167;BME280;2097;51.104;7.150;2023-01-16T13:10:40;95288.00;;;4.20;100.00
4167;BME280;2097;51.104;7.150;2023-01-16T13:13:28;95279.50;;;4.20;100.00
4167;BME280;2097;51.104;7.150;2023-01-16T13:16:02;95270.56;;;4.24;100.00
4167;BME280;2097;51.104;7.150;2023-01-16T13:18:34;95266.00;;;4.27;100.00
4167;BME280;2097;51.104;7.150;2023-01-16T13:21:08;95260.44;;;4.32;100.00
4167;BME280;2097;51.104;7.150;2023-01-16T13:23:43;95255.31;;;4.32;100.00
4167;BME280;2097;51.104;7.150;2023-01-16T13:26:14;95252.06;;;4.30;100.00
4167;BME280;2097;51.104;7.150;2023-01-16T13:28:46;95236.44;;;4.23;100.00
4167;BME280;2097;51.104;7.150;2023-01-16T13:31:23;95226.56;;;4.28;100.00
4167;BME280;2097;51.104;7.150;2023-01-16T13:33:55;95230.97;;;4.45;100.00
4167;BME280;2097;51.104;7.150;2023-01-16T13:39:43;95218.91;;;4.64;100.00
4167;BME280;2097;51.104;7.150;2023-01-16T13:42:14;95216.22;;;4.66;100.00
4167;BME280;2097;51.104;7.150;2023-01-16T13:44:45;95207.41;;;4.68;100.00
4167;BME280;2097;51.104;7.150;2023-01-16T13:47:35;95201.03;;;4.72;100.00
4167;BME280;2097;51.104;7.150;2023-01-16T13:50:18;95196.56;;;4.74;100.00
4167;BME280;2097;51.104;7.150;2023-01-16T13:52:47;95199.28;;;4.73;100.00
4167;BME280;2097;51.104;7.150;2023-01-16T13:55:27;95186.47;;;4.73;100.00
4167;BME280;2097;51.104;7.150;2023-01-16T13:57:55;95187.41;;;4.72;100.00
4167;BME280;2097;51.104;7.150;2023-01-16T14:00:23;95184.16;;;4.70;100.00
4167;BME280;2097;51.104;7.150;2023-01-16T14:03:17;95170.66;;;4.68;100.00
4167;BME280;2097;51.104;7.150;2023-01-16T14:05:48;95182.84;;;4.66;100.00